KCNO/CNO METAR and TAF weather

Enter ICAO airport designator
Station Type Date Time Source
KCNO METAR 2021/08/04 17:53 UTC NOAA

KCNO 041753Z VRB03KT 10SM CLR 33/10 A2991 RMK AO2 SLP122 T03280100 10328 20189 58005


Station Type Date Time Source
KCNO Decoded METAR 2021/08/04 17:53 UTC NOAA

CHINO AIRPORT, CA, United States (KCNO) 33-58N 117-38W 207M
Aug 04, 2021 - 01:53 PM EDT / 2021.08.04 1753 UTC
Wind: Variable at 3 MPH (3 KT):0
Visibility: 10 mile(s):0
Sky conditions: clear
Temperature: 91.0 F (32.8 C)
Dew Point: 50.0 F (10.0 C)
Relative Humidity: 24%
Pressure (altimeter): 29.91 in. Hg (1012 hPa)
Pressure tendency: 0.01 inches (0.5 hPa) lower than three hours ago
ob: KCNO 041753Z VRB03KT 10SM CLR 33/10 A2991 RMK AO2 SLP122 T03280100 10328 20189 58005
cycle: 18

Station Type Date Time Source
KCNO TAF UTC NOAA

Error!

Example: see airport list